Valerio, Brazil
Current Conditions -  °F | °C
As of 10:00 AM on Friday 31 Oct 2014 (Local Time) from SARI Reporting Station
Broken Clouds Broken Clouds  
Wind Chill: 73°   Ceiling: 25000
Heat Index: 73°   Visibility: 6mi
Dew Point: 70°   Wind: 7mph
Humidity: 88%   Direction: 50°NE
Pressure: 29.91"   Gusts: NA
Location:  25.77°S, 53.66°W
Report Text: SARI 311200Z 05006KT 9999 SCT015 BKN25023/21 Q1013
Loading
Personal Weather Stations






























Interactive Weather Map
Tropical Storm Tracking
New forecast layout! Learn more

10-Day Weather Forecast

Advertisements
Track Severe Weather on mobile